logo
Rechercher aéroport 
image banner adimage banner adimage banner ad
image banner ad

CJO3 - Jenkins Cove

Situé à Kars, Canada

ICAO - , IATA -

Données fournies par Airmate  

Information générale

Coordonnées: N45°35'38" W65°57'25"
Élévation : 20 feet MSL.
Variation magnétique : -17.4167° East
Voir autres Aéroports à New Brunswick

Données opérationnelles

Special qualification required
Heure actuelle UTC:
Heure actuelle locale:
Météo à : CYSJ - Saint John ( 31 km )
METAR: CYSJ 242000Z 35004KT 15SM SKC M06/M16 A2986 RMK SLP121
TAF: TAF CYSJ 241741Z 2418/2506 36008KT P6SM FEW040 FM250200 36006KT P6SM FEW040 BKN120 FM250400 01006KT P6SM BKN030 OVC100 RMK NXT FCST BY 250000Z
Voir NOTAMs / SUP AIP / TFR affectant cet aéroport [VIEW]
Fréquences de communication: [VIEW]

Pistes:

Identifiant RWYQFULongueur (ft)Largeur (ft)SurfaceLDA (ft)
W00WATER

Coordonnées de l'aéroport

Adresse: Kars Canada

Vue satellite de CJO3